Terminal Aerodrome Forecast
Issued by NWS

Home | Current Version | Previous Version | Text Only | Print | Product List | Glossary Off
Versions: 1 2 3 4 5 6 7 8 9 10 11 12 13 14 15 16 17

764
FTUS41 KCLE 031016 AAA
TAFFDY
TAF AMD
KFDY 031016Z 0310/0406 18010G15KT P6SM BKN060
     FM031400 23018G30KT P6SM SCT025 OVC035
     FM040000 25015G25KT P6SM OVC025=

USA.gov is the U.S. government's official web portal to all federal, state and local government web resources and services.